Time;durP1;ratioP1;P1;durP2;ratioP2;P2;SDS_P1;SDS_P2;PMS_P1;PMS_P2;Temp;Humidity;BMP_temperature;BMP_pressure;BME280_temperature;BME280_humidity;BME280_pressure;Samples;Min_cycle;Max_cycle;Signal;HPM_P1;HPM_P2
2024/05/03 00:01:26;;;;;;;;;;;;;;;;;;5302577;26;20366;-71
2024/05/03 00:03:54;;;;;;;;;;;;;;;;;;5303847;26;19938;-71
2024/05/03 00:06:23;;;;;;;;;;;;;;;;;;5305788;27;19931;-71
2024/05/03 00:08:52;;;;;;;;;;;;;;;;;;5305370;26;20007;-71
2024/05/03 00:11:20;;;;;;;;;;;;;;;;;;5303672;26;19938;-71
2024/05/03 00:13:49;;;;;;;;;;;;;;;;;;5293650;26;19962;-71
2024/05/03 00:16:18;;;;;;;;;;;;;;;;;;5305343;27;20363;-71
2024/05/03 00:18:47;;;;;;;;;;;;;;;;;;5305362;27;19950;-71
2024/05/03 00:21:16;;;;;;;;;;;;;;;;;;5305260;26;19930;-71
2024/05/03 00:23:45;;;;;;;;;;;;;;;;;;5304747;26;19930;-71
2024/05/03 00:26:14;;;;;;;;;;;;;;;;;;5301947;26;19930;-72
2024/05/03 00:28:42;;;;;;;;;;;;;;;;;;5305200;26;19938;-71
2024/05/03 00:31:11;;;;;;;;;;;;;;;;;;5306083;27;20403;-71
2024/05/03 00:33:40;;;;;;;;;;;;;;;;;;5303896;27;20389;-71
2024/05/03 00:36:08;;;;;;;;;;;;;;;;;;5303719;27;19931;-72
2024/05/03 00:38:37;;;;;;;;;;;;;;;;;;5303206;26;20266;-73
2024/05/03 00:41:06;;;;;;;;;;;;;;;;;;5303288;26;19930;-74
2024/05/03 00:43:34;;;;;;;;;;;;;;;;;;5301419;26;20412;-72
2024/05/03 00:46:03;;;;;;;;;;;;;;;;;;5300203;27;19931;-71
2024/05/03 00:48:32;;;;;;;;;;;;;;;;;;5303794;27;19931;-72
2024/05/03 00:51:05;;;;;;;;;;;;;;;;;;5305017;27;19942;-71
2024/05/03 00:53:34;;;;;;;;;;;;;;;;;;5303494;26;20497;-71
2024/05/03 00:56:05;;;;;;;;;;;;;;;;;;5304888;27;19962;-71
2024/05/03 00:58:35;;;;;;;;;;;;;;;;;;5303601;26;20363;-75
2024/05/03 01:01:04;;;;;;;;;;;;;;;;;;5314629;26;19937;-71
2024/05/03 01:03:34;;;;;;;;;;;;;;;;;;5302920;27;20480;-71
2024/05/03 01:06:02;;;;;;;;;;;;;;;;;;5302893;26;19938;-71
2024/05/03 01:08:31;;;;;;;;;;;;;;;;;;5302355;26;19931;-71
2024/05/03 01:11:00;;;;;;;;;;;;;;;;;;5302841;27;19931;-71
2024/05/03 01:13:28;;;;;;;;;;;;;;;;;;5306056;27;20273;-72
2024/05/03 01:15:57;;;;;;;;;;;;;;;;;;5303343;26;19931;-72
2024/05/03 01:18:26;;;;;;;;;;;;;;;;;;5299084;27;20480;-71
2024/05/03 01:20:54;;;;;;;;;;;;;;;;;;5306444;27;19939;-71
2024/05/03 01:23:23;;;;;;;;;;;;;;;;;;5305935;26;20289;-71
2024/05/03 01:25:52;;;;;;;;;;;;;;;;;;5305753;27;19930;-72
2024/05/03 01:28:20;;;;;;;;;;;;;;;;;;5307260;27;20385;-71
2024/05/03 01:30:49;;;;;;;;;;;;;;;;;;5294733;27;19938;-71
2024/05/03 01:33:18;;;;;;;;;;;;;;;;;;5306153;26;19943;-72
2024/05/03 01:35:46;;;;;;;;;;;;;;;;;;5308182;27;20265;-72
2024/05/03 01:38:15;;;;;;;;;;;;;;;;;;5307156;27;19934;-71
2024/05/03 01:40:44;;;;;;;;;;;;;;;;;;5306201;26;19934;-71
2024/05/03 01:43:13;;;;;;;;;;;;;;;;;;5306394;26;19930;-71
2024/05/03 01:45:41;;;;;;;;;;;;;;;;;;5298856;26;19930;-71
2024/05/03 01:48:10;;;;;;;;;;;;;;;;;;5305900;27;19973;-71
2024/05/03 01:50:39;;;;;;;;;;;;;;;;;;5302598;26;19938;-71
2024/05/03 01:53:08;;;;;;;;;;;;;;;;;;5305420;27;19938;-71
2024/05/03 01:55:37;;;;;;;;;;;;;;;;;;5304914;27;19970;-71
2024/05/03 01:58:06;;;;;;;;;;;;;;;;;;5305313;26;19938;-71
2024/05/03 02:00:36;;;;;;;;;;;;;;;;;;5304823;26;20382;-71
2024/05/03 02:03:04;;;;;;;;;;;;;;;;;;5304758;27;19956;-71
2024/05/03 02:05:33;;;;;;;;;;;;;;;;;;5287450;27;19930;-71
2024/05/03 02:08:02;;;;;;;;;;;;;;;;;;5295303;26;20026;-71
2024/05/03 02:10:31;;;;;;;;;;;;;;;;;;5295990;27;19930;-71
2024/05/03 02:12:59;;;;;;;;;;;;;;;;;;5305274;27;20514;-71
2024/05/03 02:15:28;;;;;;;;;;;;;;;;;;5305929;27;19930;-71
2024/05/03 02:17:57;;;;;;;;;;;;;;;;;;5305240;26;20377;-71
2024/05/03 02:20:25;;;;;;;;;;;;;;;;;;5305156;27;19938;-71
2024/05/03 02:22:54;;;;;;;;;;;;;;;;;;5304562;26;19931;-71
2024/05/03 02:25:23;;;;;;;;;;;;;;;;;;5304614;26;19934;-71
2024/05/03 02:27:51;;;;;;;;;;;;;;;;;;5304264;27;19937;-71
2024/05/03 02:30:20;;;;;;;;;;;;;;;;;;5305220;26;19938;-71
2024/05/03 02:32:49;;;;;;;;;;;;;;;;;;5304089;27;19946;-71
2024/05/03 02:35:18;;;;;;;;;;;;;;;;;;5305338;26;20366;-72
2024/05/03 02:37:46;;;;;;;;;;;;;;;;;;5307990;26;19931;-71
2024/05/03 02:40:15;;;;;;;;;;;;;;;;;;5307699;26;19938;-71
2024/05/03 02:42:44;;;;;;;;;;;;;;;;;;5305884;27;19931;-72
2024/05/03 02:45:12;;;;;;;;;;;;;;;;;;5307934;26;19938;-73
2024/05/03 02:47:41;;;;;;;;;;;;;;;;;;5305410;26;19953;-71
2024/05/03 02:50:10;;;;;;;;;;;;;;;;;;5304350;27;19930;-71
2024/05/03 02:52:40;;;;;;;;;;;;;;;;;;5303781;27;19938;-71
2024/05/03 02:55:09;;;;;;;;;;;;;;;;;;5304358;27;19945;-71
2024/05/03 02:57:37;;;;;;;;;;;;;;;;;;5303480;26;20456;-71
2024/05/03 03:00:06;;;;;;;;;;;;;;;;;;5303499;26;19934;-71
2024/05/03 03:02:35;;;;;;;;;;;;;;;;;;5292903;26;19931;-71
2024/05/03 03:05:03;;;;;;;;;;;;;;;;;;5305448;27;20281;-71
2024/05/03 03:07:32;;;;;;;;;;;;;;;;;;5306071;27;19931;-72
2024/05/03 03:10:01;;;;;;;;;;;;;;;;;;5306087;27;19941;-71
2024/05/03 03:12:30;;;;;;;;;;;;;;;;;;5305112;26;20450;-72
2024/05/03 03:14:58;;;;;;;;;;;;;;;;;;5302717;26;19996;-72
2024/05/03 03:17:28;;;;;;;;;;;;;;;;;;5299351;26;19931;-71
2024/05/03 03:19:56;;;;;;;;;;;;;;;;;;5302175;27;19940;-72
2024/05/03 03:22:27;;;;;;;;;;;;;;;;;;5304480;26;19934;-71
2024/05/03 03:24:55;;;;;;;;;;;;;;;;;;5303212;26;19962;-71
2024/05/03 03:27:24;;;;;;;;;;;;;;;;;;5304797;26;20439;-71
2024/05/03 03:29:53;;;;;;;;;;;;;;;;;;5303036;26;20389;-71
2024/05/03 03:32:21;;;;;;;;;;;;;;;;;;5297293;26;19937;-71
2024/05/03 03:34:50;;;;;;;;;;;;;;;;;;5302165;26;19938;-72
2024/05/03 03:37:19;;;;;;;;;;;;;;;;;;5306293;26;20020;-71
2024/05/03 03:39:47;;;;;;;;;;;;;;;;;;5305339;26;19931;-72
2024/05/03 03:42:17;;;;;;;;;;;;;;;;;;5304493;27;19931;-74
2024/05/03 03:44:45;;;;;;;;;;;;;;;;;;5303312;26;19938;-72
2024/05/03 03:47:14;;;;;;;;;;;;;;;;;;5302136;26;19937;-72
2024/05/03 03:49:45;;;;;;;;;;;;;;;;;;5303339;27;20824;-72
2024/05/03 03:52:14;;;;;;;;;;;;;;;;;;5303620;27;19934;-70
2024/05/03 03:54:42;;;;;;;;;;;;;;;;;;5303780;27;19931;-72
2024/05/03 03:57:11;;;;;;;;;;;;;;;;;;5295359;26;19931;-72
2024/05/03 03:59:40;;;;;;;;;;;;;;;;;;5303517;27;20384;-72
2024/05/03 04:02:08;;;;;;;;;;;;;;;;;;5305151;26;20392;-71
2024/05/03 04:04:37;;;;;;;;;;;;;;;;;;5303492;26;19939;-72
2024/05/03 04:07:07;;;;;;;;;;;;;;;;;;5305894;26;19934;-72
2024/05/03 04:09:35;;;;;;;;;;;;;;;;;;5305577;27;20028;-71
2024/05/03 04:12:04;;;;;;;;;;;;;;;;;;5295554;27;19935;-71
2024/05/03 04:14:33;;;;;;;;;;;;;;;;;;5303340;27;19931;-74
2024/05/03 04:17:01;;;;;;;;;;;;;;;;;;5302768;26;19938;-71
2024/05/03 04:19:30;;;;;;;;;;;;;;;;;;5302211;26;19931;-71
2024/05/03 04:21:59;;;;;;;;;;;;;;;;;;5301701;26;19935;-71
2024/05/03 04:24:27;;;;;;;;;;;;;;;;;;5303635;26;19931;-70
2024/05/03 04:26:56;;;;;;;;;;;;;;;;;;5303507;27;19937;-72
2024/05/03 04:29:25;;;;;;;;;;;;;;;;;;5304349;26;20374;-71
2024/05/03 04:31:53;;;;;;;;;;;;;;;;;;5305708;27;20362;-71
2024/05/03 04:34:22;;;;;;;;;;;;;;;;;;5305427;26;19938;-71
2024/05/03 04:36:51;;;;;;;;;;;;;;;;;;5304953;26;19931;-71
2024/05/03 04:39:20;;;;;;;;;;;;;;;;;;5303203;27;19931;-72
2024/05/03 04:41:49;;;;;;;;;;;;;;;;;;5305842;27;19937;-73
2024/05/03 04:44:17;;;;;;;;;;;;;;;;;;5305788;26;20262;-73
2024/05/03 04:46:46;;;;;;;;;;;;;;;;;;5304558;27;20294;-73
2024/05/03 04:49:15;;;;;;;;;;;;;;;;;;5297730;27;19937;-73
2024/05/03 04:51:43;;;;;;;;;;;;;;;;;;5309344;26;19930;-73
2024/05/03 04:54:12;;;;;;;;;;;;;;;;;;5307808;27;20000;-75
2024/05/03 04:56:41;;;;;;;;;;;;;;;;;;5308576;27;20380;-73
2024/05/03 04:59:09;;;;;;;;;;;;;;;;;;5307188;26;19930;-74
2024/05/03 05:01:38;;;;;;;;;;;;;;;;;;5306766;26;19937;-74
2024/05/03 05:04:07;;;;;;;;;;;;;;;;;;5307421;26;19930;-73
2024/05/03 05:06:36;;;;;;;;;;;;;;;;;;5308767;26;20588;-71
2024/05/03 05:09:05;;;;;;;;;;;;;;;;;;5307546;27;19930;-71
2024/05/03 05:11:34;;;;;;;;;;;;;;;;;;5308018;27;19938;-72
2024/05/03 05:14:03;;;;;;;;;;;;;;;;;;5308032;26;19931;-73
2024/05/03 05:16:31;;;;;;;;;;;;;;;;;;5306392;27;19930;-72
2024/05/03 05:19:00;;;;;;;;;;;;;;;;;;5306102;26;20381;-73
2024/05/03 05:24:13;;;;;;;;;;;;;;;;;;5305700;26;20424;-73
2024/05/03 05:26:42;;;;;;;;;;;;;;;;;;5307346;26;19931;-73
2024/05/03 05:29:11;;;;;;;;;;;;;;;;;;5308315;27;19954;-72
2024/05/03 05:31:40;;;;;;;;;;;;;;;;;;5308770;27;19938;-73
2024/05/03 05:34:09;;;;;;;;;;;;;;;;;;5308589;26;19939;-73
2024/05/03 05:36:37;;;;;;;;;;;;;;;;;;5308053;27;19931;-74
2024/05/03 05:39:07;;;;;;;;;;;;;;;;;;5306921;27;19930;-72
2024/05/03 05:41:35;;;;;;;;;;;;;;;;;;5306800;26;19931;-74
2024/05/03 05:44:04;;;;;;;;;;;;;;;;;;5306827;26;19945;-73
2024/05/03 05:46:33;;;;;;;;;;;;;;;;;;5304775;27;20003;-73
2024/05/03 05:49:02;;;;;;;;;;;;;;;;;;5305341;26;19937;-73
2024/05/03 05:51:30;;;;;;;;;;;;;;;;;;5305265;27;19961;-71
2024/05/03 05:53:59;;;;;;;;;;;;;;;;;;5305093;26;19941;-72
2024/05/03 05:56:29;;;;;;;;;;;;;;;;;;5307574;26;19938;-72
2024/05/03 05:58:57;;;;;;;;;;;;;;;;;;5298514;27;19934;-73
2024/05/03 06:01:23;;;;;;;;;;;;;;;;;;5302520;27;19930;-71
2024/05/03 06:03:52;;;;;;;;;;;;;;;;;;5304760;26;19966;-72
2024/05/03 06:06:21;;;;;;;;;;;;;;;;;;5303701;26;19930;-71
2024/05/03 06:08:49;;;;;;;;;;;;;;;;;;5302293;26;19945;-75
2024/05/03 06:11:18;;;;;;;;;;;;;;;;;;5305145;26;19937;-73
2024/05/03 06:13:47;;;;;;;;;;;;;;;;;;5305778;26;19989;-72
2024/05/03 06:16:16;;;;;;;;;;;;;;;;;;5302304;27;20274;-73
2024/05/03 06:18:45;;;;;;;;;;;;;;;;;;5301574;27;20311;-72
2024/05/03 06:21:14;;;;;;;;;;;;;;;;;;5304424;26;19937;-72
2024/05/03 06:23:42;;;;;;;;;;;;;;;;;;5304691;26;20822;-72
2024/05/03 06:26:11;;;;;;;;;;;;;;;;;;5302855;26;19930;-73
2024/05/03 06:28:40;;;;;;;;;;;;;;;;;;5298832;26;19938;-74
2024/05/03 06:31:08;;;;;;;;;;;;;;;;;;5300140;26;19937;-73
2024/05/03 06:33:38;;;;;;;;;;;;;;;;;;5298072;26;20365;-71
2024/05/03 06:36:07;;;;;;;;;;;;;;;;;;5302388;26;20021;-72
2024/05/03 06:38:35;;;;;;;;;;;;;;;;;;5303723;26;19938;-72
2024/05/03 06:41:05;;;;;;;;;;;;;;;;;;5303666;26;19930;-72
2024/05/03 06:43:34;;;;;;;;;;;;;;;;;;5304894;26;19931;-72
2024/05/03 06:46:03;;;;;;;;;;;;;;;;;;5310329;26;19931;-71
2024/05/03 06:48:33;;;;;;;;;;;;;;;;;;5296502;26;19930;-72
2024/05/03 06:51:02;;;;;;;;;;;;;;;;;;5296819;26;19938;-73
2024/05/03 06:53:31;;;;;;;;;;;;;;;;;;5302214;26;20007;-72
2024/05/03 06:55:59;;;;;;;;;;;;;;;;;;5304190;26;19938;-72
2024/05/03 06:58:28;;;;;;;;;;;;;;;;;;5305736;27;19937;-71
2024/05/03 07:00:57;;;;;;;;;;;;;;;;;;5304117;26;20268;-72
2024/05/03 07:03:26;;;;;;;;;;;;;;;;;;5300726;26;19938;-70
2024/05/03 07:05:55;;;;;;;;;;;;;;;;;;5304885;26;19946;-72
2024/05/03 07:08:25;;;;;;;;;;;;;;;;;;5313150;26;19930;-72
2024/05/03 07:10:54;;;;;;;;;;;;;;;;;;5297847;26;20465;-73
2024/05/03 07:13:23;;;;;;;;;;;;;;;;;;5309324;26;20012;-71
2024/05/03 07:15:52;;;;;;;;;;;;;;;;;;5303896;26;19953;-72
2024/05/03 07:18:20;;;;;;;;;;;;;;;;;;5310581;26;19938;-72
2024/05/03 07:20:52;;;;;;;;;;;;;;;;;;5317072;26;20265;-73
2024/05/03 07:23:21;;;;;;;;;;;;;;;;;;5310251;26;19997;-71
2024/05/03 07:25:50;;;;;;;;;;;;;;;;;;5303119;26;19938;-70
2024/05/03 07:28:18;;;;;;;;;;;;;;;;;;5304007;26;19931;-74
2024/05/03 07:30:50;;;;;;;;;;;;;;;;;;5300226;26;19935;-73
2024/05/03 07:33:19;;;;;;;;;;;;;;;;;;5305004;27;19931;-72
2024/05/03 07:35:47;;;;;;;;;;;;;;;;;;5301890;26;19946;-70
2024/05/03 07:38:16;;;;;;;;;;;;;;;;;;5305756;27;19930;-72
2024/05/03 07:40:46;;;;;;;;;;;;;;;;;;5311917;26;19938;-71
2024/05/03 07:43:14;;;;;;;;;;;;;;;;;;5308802;26;19942;-72
2024/05/03 07:45:43;;;;;;;;;;;;;;;;;;5310651;26;20270;-72
2024/05/03 07:48:12;;;;;;;;;;;;;;;;;;5307610;26;20381;-75
2024/05/03 07:50:41;;;;;;;;;;;;;;;;;;5306394;26;19938;-71
2024/05/03 07:53:10;;;;;;;;;;;;;;;;;;5304134;26;19930;-71
2024/05/03 07:55:39;;;;;;;;;;;;;;;;;;5301980;26;19930;-72
2024/05/03 07:58:07;;;;;;;;;;;;;;;;;;5305176;26;19931;-72
2024/05/03 08:00:36;;;;;;;;;;;;;;;;;;5304870;27;19997;-74
2024/05/03 08:03:05;;;;;;;;;;;;;;;;;;5306671;26;19939;-74
2024/05/03 08:05:33;;;;;;;;;;;;;;;;;;5305169;26;19945;-74
2024/05/03 08:08:02;;;;;;;;;;;;;;;;;;5303999;26;20370;-73
2024/05/03 08:10:31;;;;;;;;;;;;;;;;;;5304040;27;19934;-73
2024/05/03 08:13:00;;;;;;;;;;;;;;;;;;5306117;27;20004;-73
2024/05/03 08:15:29;;;;;;;;;;;;;;;;;;5304732;27;20045;-78
2024/05/03 08:17:57;;;;;;;;;;;;;;;;;;5313706;26;20021;-74
2024/05/03 08:20:26;;;;;;;;;;;;;;;;;;5312880;26;20002;-74
2024/05/03 08:22:55;;;;;;;;;;;;;;;;;;5307924;26;19937;-72
2024/05/03 08:25:24;;;;;;;;;;;;;;;;;;5331558;26;19934;-75
2024/05/03 08:27:52;;;;;;;;;;;;;;;;;;5307473;26;20328;-75
2024/05/03 08:30:21;;;;;;;;;;;;;;;;;;5305705;26;19941;-76
2024/05/03 08:32:50;;;;;;;;;;;;;;;;;;5305983;26;19942;-71
2024/05/03 08:35:19;;;;;;;;;;;;;;;;;;5305677;27;19930;-72
2024/05/03 08:37:47;;;;;;;;;;;;;;;;;;5299932;27;20014;-72
2024/05/03 08:40:16;;;;;;;;;;;;;;;;;;5295973;26;19942;-73
2024/05/03 08:42:45;;;;;;;;;;;;;;;;;;5306016;26;20254;-71
2024/05/03 08:45:13;;;;;;;;;;;;;;;;;;5311512;26;19930;-72
2024/05/03 08:47:42;;;;;;;;;;;;;;;;;;5312580;26;19935;-72
2024/05/03 08:50:12;;;;;;;;;;;;;;;;;;5309628;26;19931;-72
2024/05/03 08:52:41;;;;;;;;;;;;;;;;;;5306606;26;19947;-72
2024/05/03 08:55:09;;;;;;;;;;;;;;;;;;5309569;26;20276;-72
2024/05/03 08:57:38;;;;;;;;;;;;;;;;;;5326246;26;19942;-71
2024/05/03 09:00:07;;;;;;;;;;;;;;;;;;5299569;26;19931;-71
2024/05/03 09:02:35;;;;;;;;;;;;;;;;;;5308770;26;20025;-72
2024/05/03 09:05:04;;;;;;;;;;;;;;;;;;5305714;26;20404;-71
2024/05/03 09:07:33;;;;;;;;;;;;;;;;;;5305375;26;19935;-72
2024/05/03 09:10:02;;;;;;;;;;;;;;;;;;5308860;26;19930;-72
2024/05/03 09:12:31;;;;;;;;;;;;;;;;;;5306091;26;19931;-72
2024/05/03 09:15:01;;;;;;;;;;;;;;;;;;5304808;26;20450;-72
2024/05/03 09:17:30;;;;;;;;;;;;;;;;;;5303196;26;20004;-72
2024/05/03 09:19:58;;;;;;;;;;;;;;;;;;5306667;26;19938;-73
2024/05/03 09:22:27;;;;;;;;;;;;;;;;;;5304641;26;20156;-72
2024/05/03 09:24:56;;;;;;;;;;;;;;;;;;5311910;26;19938;-72
2024/05/03 09:27:24;;;;;;;;;;;;;;;;;;5305326;26;20385;-72
2024/05/03 09:29:53;;;;;;;;;;;;;;;;;;5304916;26;19931;-74
2024/05/03 09:32:22;;;;;;;;;;;;;;;;;;5304116;26;19937;-70
2024/05/03 09:34:50;;;;;;;;;;;;;;;;;;5299984;26;19930;-75
2024/05/03 09:37:19;;;;;;;;;;;;;;;;;;5303720;26;19938;-73
2024/05/03 09:39:48;;;;;;;;;;;;;;;;;;5303645;26;19939;-70
2024/05/03 09:42:16;;;;;;;;;;;;;;;;;;5327145;26;19954;-71
2024/05/03 09:44:45;;;;;;;;;;;;;;;;;;5304225;26;19938;-72
2024/05/03 09:47:14;;;;;;;;;;;;;;;;;;5303316;26;19942;-74
2024/05/03 09:49:43;;;;;;;;;;;;;;;;;;5305389;26;19941;-74
2024/05/03 09:52:11;;;;;;;;;;;;;;;;;;5302225;27;20496;-72
2024/05/03 09:54:40;;;;;;;;;;;;;;;;;;5297975;27;20270;-76
2024/05/03 09:57:09;;;;;;;;;;;;;;;;;;5306521;27;19938;-76
2024/05/03 09:59:37;;;;;;;;;;;;;;;;;;5296991;27;19938;-73
2024/05/03 10:02:06;;;;;;;;;;;;;;;;;;5304933;27;19930;-72
2024/05/03 10:04:38;;;;;;;;;;;;;;;;;;5304079;26;20249;-71
2024/05/03 10:07:07;;;;;;;;;;;;;;;;;;5302618;27;20375;-72
2024/05/03 10:09:36;;;;;;;;;;;;;;;;;;5305660;26;19938;-72
2024/05/03 10:12:04;;;;;;;;;;;;;;;;;;5305431;27;19934;-72
2024/05/03 10:14:34;;;;;;;;;;;;;;;;;;5306359;26;19930;-71
2024/05/03 10:17:02;;;;;;;;;;;;;;;;;;5301404;26;19930;-74
2024/05/03 10:19:31;;;;;;;;;;;;;;;;;;5302295;27;19938;-73
2024/05/03 10:22:00;;;;;;;;;;;;;;;;;;5303581;27;20004;-70
2024/05/03 10:24:28;;;;;;;;;;;;;;;;;;5303184;26;19939;-70
2024/05/03 10:26:57;;;;;;;;;;;;;;;;;;5297957;26;19930;-71
2024/05/03 10:29:26;;;;;;;;;;;;;;;;;;5302175;27;19949;-74
2024/05/03 10:31:55;;;;;;;;;;;;;;;;;;5301810;26;19938;-71
2024/05/03 10:34:24;;;;;;;;;;;;;;;;;;5302869;27;20369;-71
2024/05/03 10:36:53;;;;;;;;;;;;;;;;;;5302042;26;19945;-71
2024/05/03 10:39:21;;;;;;;;;;;;;;;;;;5306350;27;20261;-71
2024/05/03 10:41:50;;;;;;;;;;;;;;;;;;5306709;27;19931;-70
2024/05/03 10:44:19;;;;;;;;;;;;;;;;;;5305545;27;20375;-71
2024/05/03 10:46:49;;;;;;;;;;;;;;;;;;5302950;26;19930;-72
2024/05/03 10:49:17;;;;;;;;;;;;;;;;;;5304732;27;19931;-72
2024/05/03 10:51:46;;;;;;;;;;;;;;;;;;5304355;27;19931;-72
2024/05/03 10:54:15;;;;;;;;;;;;;;;;;;5303279;27;19937;-72
2024/05/03 10:56:44;;;;;;;;;;;;;;;;;;5306190;27;19942;-74
2024/05/03 10:59:12;;;;;;;;;;;;;;;;;;5304659;27;19930;-71
2024/05/03 11:01:41;;;;;;;;;;;;;;;;;;5301150;27;20369;-73
2024/05/03 11:04:10;;;;;;;;;;;;;;;;;;5303996;27;19930;-71
2024/05/03 11:06:38;;;;;;;;;;;;;;;;;;5303801;27;19938;-72
2024/05/03 11:09:08;;;;;;;;;;;;;;;;;;5305439;27;19935;-72
2024/05/03 11:11:36;;;;;;;;;;;;;;;;;;5303583;27;20000;-71
2024/05/03 11:14:05;;;;;;;;;;;;;;;;;;5287812;27;19930;-71
2024/05/03 11:16:34;;;;;;;;;;;;;;;;;;5300700;26;19930;-71
2024/05/03 11:19:02;;;;;;;;;;;;;;;;;;5303937;27;19938;-70
2024/05/03 11:21:31;;;;;;;;;;;;;;;;;;5303057;26;20239;-71
2024/05/03 11:24:00;;;;;;;;;;;;;;;;;;5304826;27;19931;-71
2024/05/03 11:26:29;;;;;;;;;;;;;;;;;;5304942;26;19961;-73
2024/05/03 11:28:57;;;;;;;;;;;;;;;;;;5304473;27;19937;-72
2024/05/03 11:31:26;;;;;;;;;;;;;;;;;;5305051;27;19931;-71
2024/05/03 11:33:55;;;;;;;;;;;;;;;;;;5302577;26;19931;-71
2024/05/03 11:36:23;;;;;;;;;;;;;;;;;;5305093;26;20234;-71
2024/05/03 11:38:52;;;;;;;;;;;;;;;;;;5305234;26;20266;-71
2024/05/03 11:41:21;;;;;;;;;;;;;;;;;;5294989;27;19944;-71
2024/05/03 11:43:50;;;;;;;;;;;;;;;;;;5305166;27;20380;-70
2024/05/03 11:46:19;;;;;;;;;;;;;;;;;;5307084;26;19962;-70
2024/05/03 11:48:47;;;;;;;;;;;;;;;;;;5306010;26;19934;-72
2024/05/03 11:51:16;;;;;;;;;;;;;;;;;;5303337;26;19931;-72
2024/05/03 11:53:45;;;;;;;;;;;;;;;;;;5305437;26;19931;-71
2024/05/03 11:56:15;;;;;;;;;;;;;;;;;;5301782;27;20232;-72
2024/05/03 11:58:44;;;;;;;;;;;;;;;;;;5301853;26;19930;-71
2024/05/03 12:01:13;;;;;;;;;;;;;;;;;;5305395;27;19930;-71
2024/05/03 12:03:42;;;;;;;;;;;;;;;;;;5304481;27;19937;-72
2024/05/03 12:06:10;;;;;;;;;;;;;;;;;;5304385;27;19938;-73
2024/05/03 12:08:39;;;;;;;;;;;;;;;;;;5304701;27;19962;-73
2024/05/03 12:11:08;;;;;;;;;;;;;;;;;;5304882;27;19937;-72
2024/05/03 12:13:36;;;;;;;;;;;;;;;;;;5304213;26;19942;-73
2024/05/03 12:16:05;;;;;;;;;;;;;;;;;;5301808;26;19938;-73
2024/05/03 12:18:34;;;;;;;;;;;;;;;;;;5305163;27;19938;-73
2024/05/03 12:21:02;;;;;;;;;;;;;;;;;;5304344;27;19937;-72
2024/05/03 12:23:31;;;;;;;;;;;;;;;;;;5305442;27;19931;-72
2024/05/03 12:26:00;;;;;;;;;;;;;;;;;;5304830;26;19930;-74
2024/05/03 12:28:28;;;;;;;;;;;;;;;;;;5302359;27;19930;-73
2024/05/03 12:30:57;;;;;;;;;;;;;;;;;;5302918;26;20378;-74
2024/05/03 12:33:26;;;;;;;;;;;;;;;;;;5304901;26;20274;-71
2024/05/03 12:35:54;;;;;;;;;;;;;;;;;;5297988;26;19946;-73
2024/05/03 12:38:23;;;;;;;;;;;;;;;;;;5301175;26;20366;-73
2024/05/03 12:40:52;;;;;;;;;;;;;;;;;;5300352;27;19949;-73
2024/05/03 12:43:21;;;;;;;;;;;;;;;;;;5303109;26;20501;-73
2024/05/03 12:45:49;;;;;;;;;;;;;;;;;;5303290;26;19937;-73
2024/05/03 12:48:18;;;;;;;;;;;;;;;;;;5320699;26;19930;-73
2024/05/03 12:50:47;;;;;;;;;;;;;;;;;;5303776;26;19930;-73
2024/05/03 12:53:15;;;;;;;;;;;;;;;;;;5308729;26;19939;-74
2024/05/03 12:55:44;;;;;;;;;;;;;;;;;;5301840;26;19938;-73
2024/05/03 12:58:13;;;;;;;;;;;;;;;;;;5298191;26;19938;-74
2024/05/03 13:00:42;;;;;;;;;;;;;;;;;;5293989;27;20318;-74
2024/05/03 13:03:11;;;;;;;;;;;;;;;;;;5299070;27;19930;-73
2024/05/03 13:05:39;;;;;;;;;;;;;;;;;;5297118;27;19938;-74
2024/05/03 13:08:08;;;;;;;;;;;;;;;;;;5302539;27;20451;-73
2024/05/03 13:13:21;;;;;;;;;;;;;;;;;;5303256;27;19941;-74
2024/05/03 13:15:50;;;;;;;;;;;;;;;;;;5305548;26;20374;-74
2024/05/03 13:18:19;;;;;;;;;;;;;;;;;;5303849;26;19931;-74
2024/05/03 13:20:47;;;;;;;;;;;;;;;;;;5304448;27;19937;-74
2024/05/03 13:23:16;;;;;;;;;;;;;;;;;;5308783;26;19937;-74
2024/05/03 13:25:45;;;;;;;;;;;;;;;;;;5306225;27;19931;-74
2024/05/03 13:28:14;;;;;;;;;;;;;;;;;;5304047;27;19931;-71
2024/05/03 13:30:42;;;;;;;;;;;;;;;;;;5305332;27;19938;-73
2024/05/03 13:33:11;;;;;;;;;;;;;;;;;;5305306;27;20474;-74
2024/05/03 13:35:40;;;;;;;;;;;;;;;;;;5305038;26;20988;-75
2024/05/03 13:38:09;;;;;;;;;;;;;;;;;;5300232;26;20370;-75
2024/05/03 13:40:37;;;;;;;;;;;;;;;;;;5301742;26;19937;-74
2024/05/03 13:43:08;;;;;;;;;;;;;;;;;;5299975;26;19937;-74
2024/05/03 13:45:37;;;;;;;;;;;;;;;;;;5300310;27;19954;-73
2024/05/03 13:48:05;;;;;;;;;;;;;;;;;;5302594;27;19942;-73
2024/05/03 13:50:34;;;;;;;;;;;;;;;;;;5303075;27;19938;-75
2024/05/03 13:53:03;;;;;;;;;;;;;;;;;;5303292;27;19939;-74
2024/05/03 13:55:32;;;;;;;;;;;;;;;;;;5302007;26;19930;-72
2024/05/03 13:58:01;;;;;;;;;;;;;;;;;;5301782;26;20219;-74
2024/05/03 14:00:29;;;;;;;;;;;;;;;;;;5299428;27;19937;-74
2024/05/03 14:02:58;;;;;;;;;;;;;;;;;;5295490;27;19931;-73
2024/05/03 14:05:27;;;;;;;;;;;;;;;;;;5311959;26;19946;-74
2024/05/03 14:07:56;;;;;;;;;;;;;;;;;;5289073;27;20007;-73
2024/05/03 14:10:25;;;;;;;;;;;;;;;;;;5304592;27;19931;-74
2024/05/03 14:12:53;;;;;;;;;;;;;;;;;;5305371;26;19938;-74
2024/05/03 14:15:22;;;;;;;;;;;;;;;;;;5303149;26;20078;-73
2024/05/03 14:17:51;;;;;;;;;;;;;;;;;;5305404;26;19954;-75
2024/05/03 14:20:20;;;;;;;;;;;;;;;;;;5304544;26;19962;-76
2024/05/03 14:22:49;;;;;;;;;;;;;;;;;;5295409;27;19938;-75
2024/05/03 14:25:20;;;;;;;;;;;;;;;;;;5304011;26;20466;-74
2024/05/03 14:27:49;;;;;;;;;;;;;;;;;;5302282;26;19996;-75
2024/05/03 14:30:18;;;;;;;;;;;;;;;;;;5301235;27;20374;-73
2024/05/03 14:32:47;;;;;;;;;;;;;;;;;;5304511;26;19931;-73
2024/05/03 14:35:16;;;;;;;;;;;;;;;;;;5300975;26;20361;-72
2024/05/03 14:37:45;;;;;;;;;;;;;;;;;;5295645;26;19938;-72
2024/05/03 14:40:13;;;;;;;;;;;;;;;;;;5289096;26;19937;-72
2024/05/03 14:42:42;;;;;;;;;;;;;;;;;;5282037;27;20014;-71
2024/05/03 14:45:11;;;;;;;;;;;;;;;;;;5303390;27;19974;-72
2024/05/03 14:47:40;;;;;;;;;;;;;;;;;;5304766;27;20016;-72
2024/05/03 14:50:09;;;;;;;;;;;;;;;;;;5303840;27;19941;-70
2024/05/03 14:52:38;;;;;;;;;;;;;;;;;;5304892;26;19930;-72
2024/05/03 14:55:07;;;;;;;;;;;;;;;;;;5302084;27;19952;-72
2024/05/03 14:57:36;;;;;;;;;;;;;;;;;;5301017;26;19954;-73
2024/05/03 15:00:04;;;;;;;;;;;;;;;;;;5304258;27;19931;-73
2024/05/03 15:02:33;;;;;;;;;;;;;;;;;;5299706;26;19938;-72
2024/05/03 15:05:05;;;;;;;;;;;;;;;;;;5312155;26;19949;-72
2024/05/03 15:07:35;;;;;;;;;;;;;;;;;;5302102;26;19935;-73
2024/05/03 15:10:03;;;;;;;;;;;;;;;;;;5319234;26;20392;-69
2024/05/03 15:12:32;;;;;;;;;;;;;;;;;;5298519;26;19931;-70
2024/05/03 15:15:01;;;;;;;;;;;;;;;;;;5302471;26;20285;-69
2024/05/03 15:17:30;;;;;;;;;;;;;;;;;;5296396;27;20376;-71
2024/05/03 15:19:58;;;;;;;;;;;;;;;;;;5299982;26;19981;-71
2024/05/03 15:22:27;;;;;;;;;;;;;;;;;;5302374;26;19937;-71
2024/05/03 15:24:56;;;;;;;;;;;;;;;;;;5301163;27;20262;-73
2024/05/03 15:27:24;;;;;;;;;;;;;;;;;;5298831;26;19938;-77
2024/05/03 15:29:53;;;;;;;;;;;;;;;;;;5299457;27;19950;-73
2024/05/03 15:32:22;;;;;;;;;;;;;;;;;;5303260;26;19934;-77
2024/05/03 15:34:51;;;;;;;;;;;;;;;;;;5303621;26;20549;-77
2024/05/03 15:37:19;;;;;;;;;;;;;;;;;;5296089;27;20088;-79
2024/05/03 15:39:48;;;;;;;;;;;;;;;;;;5302034;27;19938;-76
2024/05/03 15:42:18;;;;;;;;;;;;;;;;;;5302726;26;19943;-76
2024/05/03 15:44:46;;;;;;;;;;;;;;;;;;5304225;26;20017;-77
2024/05/03 15:47:15;;;;;;;;;;;;;;;;;;5303825;26;19930;-78
2024/05/03 15:49:44;;;;;;;;;;;;;;;;;;5303274;27;19930;-76
2024/05/03 15:52:12;;;;;;;;;;;;;;;;;;5297337;26;19949;-77
2024/05/03 15:54:41;;;;;;;;;;;;;;;;;;5306647;26;19957;-76
2024/05/03 15:57:10;;;;;;;;;;;;;;;;;;5317495;26;19931;-76
2024/05/03 15:59:38;;;;;;;;;;;;;;;;;;5302499;27;19945;-76
2024/05/03 16:02:07;;;;;;;;;;;;;;;;;;5298992;26;19938;-72
2024/05/03 16:04:36;;;;;;;;;;;;;;;;;;5309310;26;19930;-74
2024/05/03 16:07:04;;;;;;;;;;;;;;;;;;5301611;26;19962;-72
2024/05/03 16:09:33;;;;;;;;;;;;;;;;;;5295816;27;20269;-73
2024/05/03 16:12:03;;;;;;;;;;;;;;;;;;5301748;26;20015;-73
2024/05/03 16:14:32;;;;;;;;;;;;;;;;;;5302188;26;19942;-77
2024/05/03 16:17:00;;;;;;;;;;;;;;;;;;5295135;26;19931;-74
2024/05/03 16:19:29;;;;;;;;;;;;;;;;;;5300512;26;19937;-75
2024/05/03 16:21:58;;;;;;;;;;;;;;;;;;5299783;27;19950;-75
2024/05/03 16:24:26;;;;;;;;;;;;;;;;;;5288901;27;19937;-76
2024/05/03 16:26:57;;;;;;;;;;;;;;;;;;5301258;26;19930;-75
2024/05/03 16:29:25;;;;;;;;;;;;;;;;;;5301006;26;19990;-72
2024/05/03 16:31:54;;;;;;;;;;;;;;;;;;5301332;26;19930;-76
2024/05/03 16:34:23;;;;;;;;;;;;;;;;;;5297882;26;19931;-76
2024/05/03 16:36:52;;;;;;;;;;;;;;;;;;5301953;27;20469;-75
2024/05/03 16:39:21;;;;;;;;;;;;;;;;;;5302007;26;20276;-77
2024/05/03 16:41:49;;;;;;;;;;;;;;;;;;5301491;26;19937;-74
2024/05/03 16:44:18;;;;;;;;;;;;;;;;;;5304142;26;19930;-76
2024/05/03 16:46:47;;;;;;;;;;;;;;;;;;5305451;26;19931;-74
2024/05/03 16:49:15;;;;;;;;;;;;;;;;;;5303349;27;19945;-75
2024/05/03 16:51:44;;;;;;;;;;;;;;;;;;5307956;26;19937;-74
2024/05/03 16:54:13;;;;;;;;;;;;;;;;;;5303731;26;19931;-76
2024/05/03 16:56:41;;;;;;;;;;;;;;;;;;5304612;26;19938;-75
2024/05/03 16:59:15;;;;;;;;;;;;;;;;;;5290501;27;19930;-73
2024/05/03 17:01:44;;;;;;;;;;;;;;;;;;5302535;26;19942;-73